Time;durP1;ratioP1;P1;durP2;ratioP2;P2;SDS_P1;SDS_P2;PMS_P1;PMS_P2;Temp;Humidity;BMP_temperature;BMP_pressure;BME280_temperature;BME280_humidity;BME280_pressure;Samples;Min_cycle;Max_cycle;Signal;HPM_P1;HPM_P2
2023/01/10 00:00:05;;;;;;;;;;;;;;;5.24;81.50;97977.44;7381796;19;19954;-87
2023/01/10 00:02:31;;;;;;;;;;;;;;;5.01;82.23;97987.25;7377356;19;20425;-88
2023/01/10 00:04:58;;;;;;;;;;;;;;;5.12;82.26;97984.53;7380675;19;19911;-87
2023/01/10 00:07:25;;;;;;;;;;;;;;;5.02;82.22;97987.09;7374583;19;20499;-88
2023/01/10 00:09:51;;;;;;;;;;;;;;;5.09;82.79;97989.22;7380253;19;19915;-88
2023/01/10 00:15:03;;;;;;;;;;;;;;;5.25;82.00;97992.19;7375138;19;19938;-87
2023/01/10 00:17:30;;;;;;;;;;;;;;;5.19;82.23;97998.81;7376545;19;19910;-88
2023/01/10 00:19:56;;;;;;;;;;;;;;;4.95;82.60;98000.88;7379672;19;19911;-87
2023/01/10 00:22:24;;;;;;;;;;;;;;;5.19;82.33;98000.59;7380573;19;19926;-88
2023/01/10 00:24:51;;;;;;;;;;;;;;;5.30;82.09;98007.53;7376329;19;19915;-87
2023/01/10 00:27:24;;;;;;;;;;;;;;;5.16;82.19;98012.19;7377337;19;19934;-86
2023/01/10 00:29:51;;;;;;;;;;;;;;;5.07;81.90;98011.16;7378093;19;19921;-88
2023/01/10 00:32:18;;;;;;;;;;;;;;;5.07;82.28;98019.00;7375380;19;22238;-87
2023/01/10 00:34:45;;;;;;;;;;;;;;;5.15;82.46;98028.84;7372791;19;19919;-86
2023/01/10 00:37:12;;;;;;;;;;;;;;;5.16;82.18;98027.91;7373880;19;20018;-86
2023/01/10 00:39:38;;;;;;;;;;;;;;;5.36;81.59;98033.25;7377172;19;19914;-87
2023/01/10 00:44:51;;;;;;;;;;;;;;;5.25;82.32;98042.84;7379485;19;19918;-87
2023/01/10 00:47:18;;;;;;;;;;;;;;;5.30;82.44;98050.34;7375035;19;19922;-87
2023/01/10 00:49:44;;;;;;;;;;;;;;;5.44;82.14;98046.53;7378050;19;19918;-87
2023/01/10 00:52:11;;;;;;;;;;;;;;;5.32;82.52;98045.81;7375747;19;19919;-87
2023/01/10 00:54:37;;;;;;;;;;;;;;;5.28;82.68;98053.06;7373625;19;19943;-87
2023/01/10 00:57:04;;;;;;;;;;;;;;;5.18;82.87;98062.69;7381694;19;19919;-87
2023/01/10 00:59:30;;;;;;;;;;;;;;;5.12;83.11;98062.38;7378277;19;20667;-88
2023/01/10 01:01:57;;;;;;;;;;;;;;;5.29;83.01;98064.41;7382802;19;19949;-87
2023/01/10 01:04:32;;;;;;;;;;;;;;;5.32;82.58;98074.66;7379936;19;19914;-88
2023/01/10 01:07:00;;;;;;;;;;;;;;;5.37;82.48;98074.25;7376570;19;19930;-87
2023/01/10 01:09:27;;;;;;;;;;;;;;;5.37;82.58;98082.97;7374632;19;19922;-87
2023/01/10 01:11:55;;;;;;;;;;;;;;;5.45;82.42;98080.53;7375443;19;20766;-87
2023/01/10 01:14:22;;;;;;;;;;;;;;;5.48;82.15;98095.16;7373352;19;19914;-88
2023/01/10 01:16:49;;;;;;;;;;;;;;;5.48;82.47;98100.41;7377277;19;20248;-87
2023/01/10 01:19:15;;;;;;;;;;;;;;;5.55;82.22;98103.34;7380010;19;20259;-88
2023/01/10 01:21:42;;;;;;;;;;;;;;;5.56;81.80;98108.47;7376479;19;19947;-87
2023/01/10 01:24:09;;;;;;;;;;;;;;;5.45;82.53;98119.00;7380172;19;19918;-87
2023/01/10 01:26:36;;;;;;;;;;;;;;;5.16;83.05;98117.06;7373833;19;19990;-88
2023/01/10 01:29:02;;;;;;;;;;;;;;;5.43;82.25;98118.34;7373976;19;19911;-88
2023/01/10 01:31:29;;;;;;;;;;;;;;;5.32;82.80;98121.88;7376486;19;19946;-88
2023/01/10 01:33:55;;;;;;;;;;;;;;;5.56;82.26;98131.25;7375004;19;19918;-87
2023/01/10 01:36:22;;;;;;;;;;;;;;;5.62;81.89;98135.97;7373375;19;19918;-87
2023/01/10 01:38:49;;;;;;;;;;;;;;;5.44;81.94;98135.72;7377963;19;19922;-87
2023/01/10 01:44:05;;;;;;;;;;;;;;;5.22;82.58;98136.72;7382712;19;19923;-86
2023/01/10 01:46:35;;;;;;;;;;;;;;;5.09;82.43;98144.75;7376154;19;19911;-88
2023/01/10 01:49:04;;;;;;;;;;;;;;;5.09;82.66;98151.78;7379878;19;19923;-87
2023/01/10 01:51:31;;;;;;;;;;;;;;;5.17;82.49;98167.72;7375408;19;19929;-89
2023/01/10 01:54:08;;;;;;;;;;;;;;;5.19;82.43;98173.69;7374369;19;19915;-88
2023/01/10 01:56:34;;;;;;;;;;;;;;;5.01;82.46;98176.84;7372160;19;19919;-86
2023/01/10 01:59:03;;;;;;;;;;;;;;;5.05;82.44;98180.03;7378938;19;19918;-88
2023/01/10 02:01:30;;;;;;;;;;;;;;;4.99;82.27;98189.25;7371524;19;19927;-87
2023/01/10 02:03:59;;;;;;;;;;;;;;;5.16;82.06;98195.75;7374551;19;20273;-87
2023/01/10 02:06:26;;;;;;;;;;;;;;;4.95;82.18;98205.34;7371459;19;19926;-85
2023/01/10 02:09:04;;;;;;;;;;;;;;;5.11;81.54;98205.78;7378837;19;19930;-86
2023/01/10 02:11:31;;;;;;;;;;;;;;;5.07;81.77;98207.81;7378032;19;19915;-86
2023/01/10 02:13:57;;;;;;;;;;;;;;;5.26;81.35;98225.47;7380271;19;19910;-86
2023/01/10 02:16:24;;;;;;;;;;;;;;;5.17;81.57;98223.63;7378302;19;19918;-87
2023/01/10 02:18:50;;;;;;;;;;;;;;;5.16;81.98;98235.09;7382763;19;19918;-86
2023/01/10 02:21:19;;;;;;;;;;;;;;;5.19;81.67;98240.06;7378930;19;20069;-87
2023/01/10 02:23:59;;;;;;;;;;;;;;;5.16;81.88;98250.81;7377937;19;19910;-87
2023/01/10 02:26:29;;;;;;;;;;;;;;;5.09;82.21;98247.03;7377597;19;19955;-88
2023/01/10 02:29:07;;;;;;;;;;;;;;;5.01;82.34;98252.06;7382562;19;19926;-87
2023/01/10 02:31:57;;;;;;;;;;;;;;;4.89;82.93;98263.50;7377271;19;19926;-86
2023/01/10 02:34:23;;;;;;;;;;;;;;;5.25;82.22;98257.94;7376005;19;19922;-86
2023/01/10 02:37:09;;;;;;;;;;;;;;;5.02;83.09;98269.44;7380369;19;19918;-85
2023/01/10 02:39:42;;;;;;;;;;;;;;;4.86;83.23;98269.84;7380387;19;19915;-86
2023/01/10 02:42:12;;;;;;;;;;;;;;;4.93;83.58;98278.06;7381348;19;19922;-83
2023/01/10 02:44:39;;;;;;;;;;;;;;;5.00;82.89;98273.97;7377015;19;19919;-81
2023/01/10 02:47:06;;;;;;;;;;;;;;;4.98;83.27;98279.34;7383366;19;19919;-86
2023/01/10 02:49:49;;;;;;;;;;;;;;;4.73;83.51;98285.69;7384875;19;20779;-87
2023/01/10 02:52:17;;;;;;;;;;;;;;;5.19;82.55;98287.28;7383829;19;21760;-87
2023/01/10 02:54:43;;;;;;;;;;;;;;;5.12;82.77;98296.59;7380156;19;20358;-86
2023/01/10 02:57:25;;;;;;;;;;;;;;;5.12;82.79;98293.97;7385427;19;20248;-87
2023/01/10 03:00:07;;;;;;;;;;;;;;;4.79;83.72;98295.72;7379575;19;20340;-86
2023/01/10 03:02:52;;;;;;;;;;;;;;;4.81;83.17;98309.50;7379816;19;19918;-84
2023/01/10 03:05:28;;;;;;;;;;;;;;;4.98;82.94;98308.19;7378114;19;19947;-87
2023/01/10 03:07:57;;;;;;;;;;;;;;;4.91;83.15;98319.28;7383270;19;19943;-83
2023/01/10 03:10:38;;;;;;;;;;;;;;;4.94;82.78;98319.88;7379976;19;20422;-87
2023/01/10 03:13:06;;;;;;;;;;;;;;;5.11;82.43;98325.53;7378952;19;19918;-87
2023/01/10 03:15:33;;;;;;;;;;;;;;;4.92;82.83;98332.25;7375529;19;19914;-88
2023/01/10 03:18:01;;;;;;;;;;;;;;;4.86;82.12;98337.16;7381459;19;19918;-87
2023/01/10 03:20:28;;;;;;;;;;;;;;;4.97;81.93;98347.63;7377061;19;19934;-88
2023/01/10 03:22:54;;;;;;;;;;;;;;;4.64;82.76;98344.09;7373247;19;19939;-87
2023/01/10 03:25:22;;;;;;;;;;;;;;;5.09;81.88;98356.31;7375077;19;19915;-87
2023/01/10 03:27:59;;;;;;;;;;;;;;;4.67;81.87;98356.94;7377205;19;19929;-83
2023/01/10 03:30:31;;;;;;;;;;;;;;;4.83;81.87;98360.03;7375118;19;19927;-87
2023/01/10 03:32:58;;;;;;;;;;;;;;;4.62;82.55;98373.00;7378635;19;19926;-87
2023/01/10 03:35:31;;;;;;;;;;;;;;;4.77;82.98;98380.66;7376257;19;20648;-85
2023/01/10 03:38:00;;;;;;;;;;;;;;;4.64;83.70;98372.09;7373260;19;20198;-84
2023/01/10 03:40:31;;;;;;;;;;;;;;;4.91;82.60;98379.56;7379154;19;19915;-88
2023/01/10 03:46:07;;;;;;;;;;;;;;;4.80;82.67;98396.97;7373266;19;20354;-86
2023/01/10 03:48:35;;;;;;;;;;;;;;;4.72;82.47;98398.53;7375597;19;19929;-87
2023/01/10 03:51:02;;;;;;;;;;;;;;;5.01;82.35;98409.38;7378181;19;19918;-86
2023/01/10 03:53:30;;;;;;;;;;;;;;;4.73;82.77;98415.91;7375126;19;21743;-86
2023/01/10 03:55:56;;;;;;;;;;;;;;;4.69;82.75;98415.31;7374407;19;20400;-83
2023/01/10 03:58:23;;;;;;;;;;;;;;;5.00;82.38;98418.16;7373360;19;19919;-86
2023/01/10 04:00:50;;;;;;;;;;;;;;;5.00;82.29;98419.03;7375577;19;19915;-87
2023/01/10 04:03:16;;;;;;;;;;;;;;;4.87;81.78;98420.06;7378482;19;19955;-86
2023/01/10 04:05:43;;;;;;;;;;;;;;;4.77;82.48;98430.47;7375936;19;19962;-86
2023/01/10 04:08:10;;;;;;;;;;;;;;;4.78;82.76;98440.81;7377983;19;19990;-85
2023/01/10 04:10:37;;;;;;;;;;;;;;;4.97;82.22;98452.50;7379400;19;19930;-86
2023/01/10 04:13:03;;;;;;;;;;;;;;;4.97;82.18;98458.56;7378101;19;19926;-87
2023/01/10 04:15:30;;;;;;;;;;;;;;;5.18;81.41;98455.25;7372510;19;19914;-87
2023/01/10 04:17:57;;;;;;;;;;;;;;;4.74;82.00;98459.50;7367987;19;19986;-87
2023/01/10 04:20:26;;;;;;;;;;;;;;;4.82;81.84;98457.97;7380858;19;19919;-87
2023/01/10 04:22:53;;;;;;;;;;;;;;;4.83;81.71;98456.19;7381790;19;19915;-87
2023/01/10 04:25:20;;;;;;;;;;;;;;;4.78;82.23;98466.19;7377299;19;19994;-87
2023/01/10 04:27:48;;;;;;;;;;;;;;;4.55;82.05;98465.31;7379285;19;19918;-87
2023/01/10 04:30:14;;;;;;;;;;;;;;;4.72;81.68;98475.34;7381279;19;19926;-88
2023/01/10 04:32:41;;;;;;;;;;;;;;;4.68;82.14;98487.00;7371550;19;19918;-88
2023/01/10 04:35:08;;;;;;;;;;;;;;;4.76;81.89;98495.13;7372431;19;19922;-87
2023/01/10 04:37:34;;;;;;;;;;;;;;;4.48;82.67;98493.75;7381791;19;19910;-87
2023/01/10 04:40:01;;;;;;;;;;;;;;;4.47;82.49;98501.72;7384530;19;19922;-88
2023/01/10 04:42:27;;;;;;;;;;;;;;;4.50;81.97;98509.34;7380638;19;19925;-88
2023/01/10 04:44:54;;;;;;;;;;;;;;;4.57;82.02;98513.19;7381385;19;20245;-87
2023/01/10 04:47:20;;;;;;;;;;;;;;;4.46;82.04;98521.84;7378752;19;20586;-87
2023/01/10 04:49:47;;;;;;;;;;;;;;;4.39;82.39;98521.44;7380833;19;19922;-87
2023/01/10 04:52:13;;;;;;;;;;;;;;;4.45;82.37;98527.19;7380953;19;19967;-88
2023/01/10 04:54:40;;;;;;;;;;;;;;;4.66;82.27;98540.47;7377025;19;19929;-89
2023/01/10 04:57:06;;;;;;;;;;;;;;;4.28;82.96;98541.53;7381230;19;19914;-86
2023/01/10 04:59:33;;;;;;;;;;;;;;;4.50;82.93;98548.66;7382874;19;19919;-88
2023/01/10 05:02:00;;;;;;;;;;;;;;;4.33;82.77;98550.72;7378737;19;19946;-85
2023/01/10 05:04:26;;;;;;;;;;;;;;;4.32;82.98;98556.91;7379613;19;19947;-87
2023/01/10 05:06:53;;;;;;;;;;;;;;;4.42;82.27;98551.00;7378642;19;19929;-87
2023/01/10 05:09:19;;;;;;;;;;;;;;;4.32;81.98;98556.09;7382958;19;19919;-87
2023/01/10 05:11:46;;;;;;;;;;;;;;;4.53;81.54;98561.50;7378139;19;19926;-87
2023/01/10 05:14:12;;;;;;;;;;;;;;;4.52;81.46;98560.69;7375461;19;19923;-89
2023/01/10 05:16:39;;;;;;;;;;;;;;;4.56;80.94;98562.13;7377103;19;19924;-89
2023/01/10 05:19:06;;;;;;;;;;;;;;;4.48;80.70;98572.34;7374505;19;19935;-87
2023/01/10 05:21:33;;;;;;;;;;;;;;;4.13;82.30;98567.03;7371374;19;19929;-86
2023/01/10 05:24:00;;;;;;;;;;;;;;;4.08;82.77;98563.91;7374110;19;19918;-85
2023/01/10 05:26:29;;;;;;;;;;;;;;;4.17;82.29;98581.59;7374709;19;19921;-87
2023/01/10 05:28:56;;;;;;;;;;;;;;;4.22;81.89;98589.13;7377911;19;19927;-87
2023/01/10 05:31:22;;;;;;;;;;;;;;;4.42;81.91;98577.19;7377379;19;19921;-86
2023/01/10 05:33:50;;;;;;;;;;;;;;;4.20;82.15;98593.63;7374921;19;19921;-85
2023/01/10 05:36:17;;;;;;;;;;;;;;;4.47;81.61;98602.09;7377986;19;19929;-86
2023/01/10 05:38:43;;;;;;;;;;;;;;;4.53;81.40;98611.28;7374151;19;19911;-87
2023/01/10 05:41:10;;;;;;;;;;;;;;;4.37;81.33;98607.19;7374552;19;19915;-87
2023/01/10 05:43:37;;;;;;;;;;;;;;;4.75;80.46;98610.56;7371888;19;19994;-86
2023/01/10 05:46:04;;;;;;;;;;;;;;;4.55;80.44;98617.25;7377842;19;19915;-87
2023/01/10 05:48:34;;;;;;;;;;;;;;;4.75;80.22;98615.81;7377316;19;19918;-87
2023/01/10 05:51:00;;;;;;;;;;;;;;;4.48;80.97;98627.38;7374741;19;19910;-86
2023/01/10 05:53:27;;;;;;;;;;;;;;;4.69;80.17;98624.97;7375845;19;19919;-87
2023/01/10 05:55:56;;;;;;;;;;;;;;;4.46;80.60;98628.44;7376291;19;19925;-87
2023/01/10 05:58:23;;;;;;;;;;;;;;;4.74;80.25;98630.72;7375133;19;19925;-87
2023/01/10 06:00:50;;;;;;;;;;;;;;;4.61;80.02;98636.00;7375489;19;19919;-85
2023/01/10 06:03:17;;;;;;;;;;;;;;;4.60;80.17;98633.50;7376405;19;19930;-86
2023/01/10 06:05:43;;;;;;;;;;;;;;;4.80;79.53;98627.63;7368620;19;19919;-86
2023/01/10 06:08:13;;;;;;;;;;;;;;;4.63;79.83;98638.50;7378098;19;19994;-86
2023/01/10 06:10:40;;;;;;;;;;;;;;;4.84;79.57;98639.56;7377393;19;19943;-86
2023/01/10 06:13:08;;;;;;;;;;;;;;;4.82;79.80;98643.25;7378049;19;20004;-85
2023/01/10 06:15:35;;;;;;;;;;;;;;;4.69;79.76;98645.09;7377154;19;19939;-85
2023/01/10 06:18:02;;;;;;;;;;;;;;;4.59;79.70;98644.94;7378899;19;19911;-84
2023/01/10 06:20:28;;;;;;;;;;;;;;;4.60;79.45;98657.91;7380579;19;19943;-86
2023/01/10 06:22:55;;;;;;;;;;;;;;;4.57;79.20;98660.75;7375486;19;19916;-85
2023/01/10 06:25:22;;;;;;;;;;;;;;;4.64;79.41;98666.41;7376371;19;19974;-85
2023/01/10 06:27:48;;;;;;;;;;;;;;;4.70;79.12;98671.19;7377887;19;19943;-86
2023/01/10 06:30:15;;;;;;;;;;;;;;;4.67;78.64;98671.41;7373377;19;19926;-87
2023/01/10 06:32:43;;;;;;;;;;;;;;;4.49;78.86;98659.63;7377059;19;20273;-85
2023/01/10 06:35:10;;;;;;;;;;;;;;;4.49;78.84;98670.13;7375414;19;19915;-84
2023/01/10 06:37:37;;;;;;;;;;;;;;;4.44;78.54;98670.44;7379508;19;19922;-86
2023/01/10 06:40:04;;;;;;;;;;;;;;;4.38;78.47;98678.75;7377936;19;20655;-85
2023/01/10 06:42:30;;;;;;;;;;;;;;;4.47;78.38;98685.09;7378854;19;19922;-85
2023/01/10 06:44:57;;;;;;;;;;;;;;;4.51;77.94;98682.16;7378756;19;19925;-85
2023/01/10 06:47:24;;;;;;;;;;;;;;;4.51;77.84;98705.75;7379172;19;19922;-85
2023/01/10 06:49:50;;;;;;;;;;;;;;;4.66;77.61;98700.34;7374899;19;19930;-85
2023/01/10 06:52:17;;;;;;;;;;;;;;;4.70;76.84;98710.50;7379868;19;19930;-85
2023/01/10 06:54:43;;;;;;;;;;;;;;;4.54;77.19;98708.13;7378737;19;20272;-85
2023/01/10 06:57:10;;;;;;;;;;;;;;;4.63;77.54;98711.88;7383053;19;19942;-85
2023/01/10 06:59:37;;;;;;;;;;;;;;;4.31;77.24;98720.25;7386309;19;19935;-84
2023/01/10 07:02:03;;;;;;;;;;;;;;;4.60;77.57;98727.81;7384372;19;20047;-85
2023/01/10 07:04:30;;;;;;;;;;;;;;;4.43;77.48;98728.19;7386805;19;19943;-85
2023/01/10 07:06:57;;;;;;;;;;;;;;;4.38;76.99;98724.09;7382902;19;19922;-85
2023/01/10 07:09:24;;;;;;;;;;;;;;;4.26;77.67;98722.34;7384574;19;19922;-85
2023/01/10 07:11:51;;;;;;;;;;;;;;;4.26;78.02;98722.34;7380122;19;19919;-84
2023/01/10 07:14:18;;;;;;;;;;;;;;;4.15;78.43;98719.66;7383164;19;20485;-85
2023/01/10 07:16:44;;;;;;;;;;;;;;;4.13;78.40;98739.84;7382664;19;20326;-83
2023/01/10 07:19:16;;;;;;;;;;;;;;;4.21;78.41;98744.56;7384641;19;19911;-84
2023/01/10 07:21:42;;;;;;;;;;;;;;;4.49;78.02;98751.34;7384814;19;19911;-85
2023/01/10 07:24:09;;;;;;;;;;;;;;;4.52;77.47;98766.84;7383821;19;19933;-85
2023/01/10 07:26:36;;;;;;;;;;;;;;;4.53;77.56;98768.50;7381777;19;19919;-84
2023/01/10 07:29:02;;;;;;;;;;;;;;;4.47;78.03;98779.41;7382898;19;19915;-85
2023/01/10 07:31:29;;;;;;;;;;;;;;;4.60;78.01;98783.69;7386557;19;20267;-86
2023/01/10 07:33:55;;;;;;;;;;;;;;;4.69;77.42;98784.84;7385901;19;19922;-86
2023/01/10 07:36:22;;;;;;;;;;;;;;;4.84;77.85;98778.50;7381397;19;20357;-86
2023/01/10 07:38:49;;;;;;;;;;;;;;;4.70;77.72;98785.66;7385239;19;20351;-86
2023/01/10 07:41:15;;;;;;;;;;;;;;;4.80;77.79;98786.69;7387988;19;19923;-86
2023/01/10 07:43:42;;;;;;;;;;;;;;;4.94;77.56;98786.53;7383195;19;19911;-86
2023/01/10 07:46:10;;;;;;;;;;;;;;;4.91;77.67;98780.69;7389541;19;19923;-86
2023/01/10 07:48:37;;;;;;;;;;;;;;;4.79;77.89;98791.09;7388421;19;19915;-86
2023/01/10 07:51:04;;;;;;;;;;;;;;;4.73;78.01;98796.75;7385363;19;19918;-85
2023/01/10 07:53:32;;;;;;;;;;;;;;;4.77;78.34;98815.75;7387004;19;20559;-86
2023/01/10 07:55:59;;;;;;;;;;;;;;;4.79;77.93;98822.56;7387899;19;19942;-86
2023/01/10 07:58:25;;;;;;;;;;;;;;;4.87;77.52;98829.88;7387183;19;19918;-85
2023/01/10 08:00:55;;;;;;;;;;;;;;;5.00;78.16;98835.06;7383936;19;20497;-86
2023/01/10 08:03:23;;;;;;;;;;;;;;;4.99;77.41;98828.16;7387208;19;19918;-85
2023/01/10 08:05:55;;;;;;;;;;;;;;;5.07;77.08;98838.94;7383026;19;19951;-86
2023/01/10 08:08:23;;;;;;;;;;;;;;;4.92;77.49;98847.91;7387035;19;19918;-85
2023/01/10 08:10:49;;;;;;;;;;;;;;;4.94;77.41;98853.88;7388968;19;19938;-86
2023/01/10 08:13:16;;;;;;;;;;;;;;;5.02;76.92;98846.31;7389336;19;19918;-86
2023/01/10 08:15:45;;;;;;;;;;;;;;;5.23;76.45;98851.78;7382917;19;19951;-86
2023/01/10 08:18:12;;;;;;;;;;;;;;;5.16;76.57;98858.41;7387452;19;19933;-86
2023/01/10 08:20:39;;;;;;;;;;;;;;;5.07;76.03;98855.50;7382860;19;19919;-85
2023/01/10 08:23:06;;;;;;;;;;;;;;;5.24;76.34;98854.31;7384041;19;19925;-86
2023/01/10 08:25:32;;;;;;;;;;;;;;;5.07;76.12;98858.13;7383882;19;19926;-86
2023/01/10 08:27:59;;;;;;;;;;;;;;;5.26;76.26;98860.28;7380006;19;19933;-85
2023/01/10 08:30:25;;;;;;;;;;;;;;;5.26;76.35;98880.44;7383604;19;19922;-86
2023/01/10 08:32:52;;;;;;;;;;;;;;;5.30;75.78;98881.06;7385940;19;20471;-86
2023/01/10 08:35:19;;;;;;;;;;;;;;;5.28;75.35;98875.91;7384838;19;19923;-86
2023/01/10 08:37:46;;;;;;;;;;;;;;;5.27;75.71;98885.56;7382908;19;19919;-86
2023/01/10 08:40:12;;;;;;;;;;;;;;;5.13;75.89;98898.81;7385076;19;20498;-86
2023/01/10 08:42:39;;;;;;;;;;;;;;;5.19;75.70;98895.78;7384750;19;19918;-86
2023/01/10 08:45:06;;;;;;;;;;;;;;;5.36;75.10;98902.44;7380774;19;19918;-85
2023/01/10 08:47:33;;;;;;;;;;;;;;;5.52;75.39;98894.31;7385723;19;19928;-85
2023/01/10 08:50:03;;;;;;;;;;;;;;;5.46;75.08;98892.13;7386241;19;20285;-85
2023/01/10 08:52:33;;;;;;;;;;;;;;;5.21;75.42;98890.41;7381210;19;19947;-85
2023/01/10 08:54:59;;;;;;;;;;;;;;;5.39;76.42;98891.72;7383486;19;20363;-85
2023/01/10 08:57:26;;;;;;;;;;;;;;;5.27;75.74;98896.06;7380136;19;19929;-84
2023/01/10 08:59:52;;;;;;;;;;;;;;;5.37;75.57;98893.63;7387190;19;19914;-85
2023/01/10 09:02:19;;;;;;;;;;;;;;;5.62;75.84;98900.56;7384534;19;19924;-85
2023/01/10 09:04:45;;;;;;;;;;;;;;;5.50;75.39;98909.31;7381762;19;19946;-85
2023/01/10 09:07:12;;;;;;;;;;;;;;;5.02;76.06;98920.56;7377532;19;20044;-82
2023/01/10 09:09:39;;;;;;;;;;;;;;;5.35;75.53;98924.38;7374172;19;19923;-84
2023/01/10 09:12:53;;;;;;;;;;;;;;;5.70;75.06;98924.47;7382370;19;19922;-85
2023/01/10 09:14:52;;;;;;;;;;;;;;;5.66;75.30;98927.41;7379042;19;20424;-86
2023/01/10 09:17:19;;;;;;;;;;;;;;;5.80;75.63;98927.25;7379509;19;19922;-86
2023/01/10 09:19:45;;;;;;;;;;;;;;;5.88;75.37;98932.78;7380535;19;20646;-86
2023/01/10 09:22:12;;;;;;;;;;;;;;;5.77;75.71;98930.13;7381583;19;19937;-85
2023/01/10 09:24:38;;;;;;;;;;;;;;;5.88;74.76;98939.84;7383032;19;19960;-86
2023/01/10 09:27:05;;;;;;;;;;;;;;;6.06;74.38;98935.88;7384629;19;19947;-85
2023/01/10 09:29:31;;;;;;;;;;;;;;;6.06;74.46;98935.06;7384025;19;19925;-85
2023/01/10 09:31:58;;;;;;;;;;;;;;;6.19;74.10;98938.44;7383606;19;19925;-86
2023/01/10 09:34:25;;;;;;;;;;;;;;;6.05;74.34;98939.44;7382994;19;19933;-86
2023/01/10 09:36:52;;;;;;;;;;;;;;;5.93;74.17;98956.09;7380838;19;19943;-85
2023/01/10 09:39:20;;;;;;;;;;;;;;;5.86;74.61;98952.22;7381867;19;19922;-85
2023/01/10 09:41:47;;;;;;;;;;;;;;;5.89;73.58;98955.47;7385153;19;19915;-85
2023/01/10 09:44:18;;;;;;;;;;;;;;;5.98;74.46;98959.25;7383696;19;19930;-85
2023/01/10 09:46:51;;;;;;;;;;;;;;;6.02;73.49;98960.69;7381729;19;19914;-85
2023/01/10 09:49:24;;;;;;;;;;;;;;;6.27;73.36;98958.91;7382527;19;19970;-86
2023/01/10 09:51:51;;;;;;;;;;;;;;;6.51;73.29;98957.06;7382977;19;19956;-86
2023/01/10 09:54:36;;;;;;;;;;;;;;;6.48;73.48;98957.28;7380837;19;19927;-86
2023/01/10 09:57:03;;;;;;;;;;;;;;;6.47;73.09;98967.91;7385288;19;19926;-86
2023/01/10 09:59:36;;;;;;;;;;;;;;;6.54;72.83;98966.50;7381132;19;19926;-85
2023/01/10 10:02:05;;;;;;;;;;;;;;;6.62;73.22;98979.06;7381564;19;19953;-86
2023/01/10 10:04:34;;;;;;;;;;;;;;;6.47;73.75;98973.16;7380664;19;19938;-85
2023/01/10 10:07:01;;;;;;;;;;;;;;;6.46;74.49;98980.22;7379954;19;20343;-85
2023/01/10 10:09:28;;;;;;;;;;;;;;;6.31;74.21;98978.72;7378295;19;19919;-85
2023/01/10 10:12:13;;;;;;;;;;;;;;;6.29;74.91;98972.75;7377234;19;19915;-85
2023/01/10 10:14:55;;;;;;;;;;;;;;;6.36;75.25;98977.44;7377865;19;19931;-86
2023/01/10 10:17:50;;;;;;;;;;;;;;;6.42;74.26;98968.25;7384760;19;19915;-85
2023/01/10 10:20:26;;;;;;;;;;;;;;;6.51;74.18;98967.56;7380879;19;19918;-84
2023/01/10 10:22:56;;;;;;;;;;;;;;;6.41;74.01;98963.13;7381346;19;19910;-83
2023/01/10 10:25:27;;;;;;;;;;;;;;;6.02;75.21;98965.13;7376655;19;19926;-83
2023/01/10 10:28:04;;;;;;;;;;;;;;;6.31;74.12;98970.84;7379759;19;20605;-84
2023/01/10 10:30:34;;;;;;;;;;;;;;;6.31;74.27;98968.22;7388101;19;19933;-84
2023/01/10 10:33:09;;;;;;;;;;;;;;;6.17;75.60;98963.16;7390465;19;19935;-84
2023/01/10 10:35:37;;;;;;;;;;;;;;;6.40;74.47;98971.94;7388902;19;20278;-84
2023/01/10 10:38:07;;;;;;;;;;;;;;;6.29;75.37;98968.34;7390441;19;20352;-84
2023/01/10 10:40:35;;;;;;;;;;;;;;;6.39;74.05;98973.72;7389294;19;20333;-85
2023/01/10 10:43:10;;;;;;;;;;;;;;;6.36;74.68;98963.47;7387457;19;19918;-85
2023/01/10 10:45:40;;;;;;;;;;;;;;;6.26;73.73;98954.59;7385501;19;19915;-86
2023/01/10 10:48:12;;;;;;;;;;;;;;;6.50;73.37;98963.28;7390043;19;19911;-87
2023/01/10 10:50:43;;;;;;;;;;;;;;;6.58;73.78;98955.66;7388563;19;20675;-86
2023/01/10 10:53:10;;;;;;;;;;;;;;;6.36;74.37;98959.03;7387941;19;19915;-83
2023/01/10 10:55:36;;;;;;;;;;;;;;;6.41;73.87;98961.31;7385268;19;20314;-87
2023/01/10 10:58:03;;;;;;;;;;;;;;;6.39;73.67;98955.34;7387921;19;19923;-86
2023/01/10 11:00:30;;;;;;;;;;;;;;;6.50;74.16;98955.41;7388998;19;19918;-86
2023/01/10 11:03:02;;;;;;;;;;;;;;;6.70;74.56;98958.28;7391518;19;19935;-86
2023/01/10 11:05:39;;;;;;;;;;;;;;;6.61;74.93;98962.47;7384866;19;19925;-86
2023/01/10 11:08:15;;;;;;;;;;;;;;;6.43;74.35;98964.69;7386279;19;19914;-86
2023/01/10 11:10:55;;;;;;;;;;;;;;;6.41;74.97;98973.63;7390238;19;20514;-86
2023/01/10 11:13:34;;;;;;;;;;;;;;;6.47;75.92;98968.75;7389325;19;19927;-86
2023/01/10 11:16:01;;;;;;;;;;;;;;;6.38;76.43;98972.06;7389653;19;19930;-86
2023/01/10 11:18:28;;;;;;;;;;;;;;;6.54;75.34;98979.66;7388338;19;20408;-86
2023/01/10 11:20:57;;;;;;;;;;;;;;;6.73;75.27;98976.47;7399377;19;19911;-85
2023/01/10 11:23:27;;;;;;;;;;;;;;;6.78;74.04;98976.94;7388316;19;19922;-85
2023/01/10 11:25:54;;;;;;;;;;;;;;;6.84;74.75;98987.00;7382333;19;19914;-85
2023/01/10 11:28:22;;;;;;;;;;;;;;;6.85;74.57;98978.16;7389163;19;20594;-85
2023/01/10 11:30:49;;;;;;;;;;;;;;;6.90;74.16;98975.16;7389274;19;20394;-84
2023/01/10 11:33:21;;;;;;;;;;;;;;;6.90;73.27;98986.53;7386742;19;19974;-83
2023/01/10 11:35:56;;;;;;;;;;;;;;;6.98;72.33;98981.53;7382132;19;19915;-84
2023/01/10 11:38:27;;;;;;;;;;;;;;;6.96;71.46;98982.59;7386000;19;19918;-85
2023/01/10 11:40:57;;;;;;;;;;;;;;;7.22;72.45;98970.06;7392188;19;19933;-85
2023/01/10 11:43:25;;;;;;;;;;;;;;;6.94;72.50;98972.19;7389033;19;19927;-85
2023/01/10 11:45:53;;;;;;;;;;;;;;;7.03;71.86;98968.84;7384811;19;19918;-85
2023/01/10 11:48:20;;;;;;;;;;;;;;;7.16;71.62;98974.00;7388227;19;19922;-85
2023/01/10 11:51:13;;;;;;;;;;;;;;;7.11;71.91;98967.41;7383595;19;19970;-85
2023/01/10 11:53:40;;;;;;;;;;;;;;;7.52;71.57;98973.88;7384317;19;19929;-85
2023/01/10 11:56:11;;;;;;;;;;;;;;;7.46;71.76;98968.13;7389419;19;19929;-85
2023/01/10 11:58:38;;;;;;;;;;;;;;;7.38;71.22;98969.69;7390169;19;20384;-86
2023/01/10 12:01:05;;;;;;;;;;;;;;;7.43;72.32;98967.53;7388191;19;19923;-85
2023/01/10 12:03:35;;;;;;;;;;;;;;;7.26;72.00;98971.47;7386002;19;19914;-85
2023/01/10 12:06:03;;;;;;;;;;;;;;;6.46;72.92;98964.44;7385708;19;19915;-85
2023/01/10 12:08:30;;;;;;;;;;;;;;;6.33;74.53;98974.19;7388114;19;19919;-85
2023/01/10 12:11:00;;;;;;;;;;;;;;;6.31;75.71;98962.97;7391292;19;19961;-85
2023/01/10 12:13:28;;;;;;;;;;;;;;;6.29;74.94;98968.34;7381271;19;19923;-83
2023/01/10 12:16:27;;;;;;;;;;;;;;;6.10;76.24;98976.72;7385739;19;19926;-85
2023/01/10 12:19:00;;;;;;;;;;;;;;;6.45;76.30;98967.19;7393072;19;19926;-84
2023/01/10 12:21:35;;;;;;;;;;;;;;;6.34;75.52;98955.69;7386771;19;19933;-85
2023/01/10 12:24:03;;;;;;;;;;;;;;;6.48;76.24;98957.28;7391802;19;20640;-85
2023/01/10 12:26:30;;;;;;;;;;;;;;;6.63;76.11;98949.19;7390079;19;19918;-85
2023/01/10 12:28:57;;;;;;;;;;;;;;;6.35;76.16;98935.50;7391567;19;19926;-85
2023/01/10 12:31:24;;;;;;;;;;;;;;;6.55;75.89;98931.38;7390229;19;20352;-85
2023/01/10 12:33:54;;;;;;;;;;;;;;;6.45;74.86;98930.38;7388567;19;19919;-85
2023/01/10 12:36:33;;;;;;;;;;;;;;;6.31;75.14;98923.53;7384945;19;19918;-85
2023/01/10 12:39:15;;;;;;;;;;;;;;;6.50;75.39;98917.72;7392093;19;20406;-85
2023/01/10 12:44:38;;;;;;;;;;;;;;;6.66;74.73;98920.03;7391158;19;20000;-85
2023/01/10 12:47:11;;;;;;;;;;;;;;;6.84;74.60;98904.63;7390359;19;20649;-85
2023/01/10 12:49:43;;;;;;;;;;;;;;;6.96;73.78;98904.50;7392419;19;19979;-85
2023/01/10 12:52:13;;;;;;;;;;;;;;;7.03;74.18;98908.34;7388100;19;20449;-85
2023/01/10 12:54:40;;;;;;;;;;;;;;;6.77;73.29;98899.03;7387671;19;19933;-85
2023/01/10 12:57:13;;;;;;;;;;;;;;;6.78;73.52;98900.69;7388037;19;19922;-84
2023/01/10 12:59:40;;;;;;;;;;;;;;;6.78;73.38;98898.88;7391758;19;19926;-85
2023/01/10 13:02:20;;;;;;;;;;;;;;;6.64;72.12;98898.31;7386046;19;20018;-84
2023/01/10 13:04:50;;;;;;;;;;;;;;;6.59;72.34;98898.66;7377306;19;19922;-84
2023/01/10 13:07:17;;;;;;;;;;;;;;;6.57;71.08;98901.38;7375074;19;19923;-86
2023/01/10 13:09:43;;;;;;;;;;;;;;;6.50;70.75;98901.97;7373732;19;19921;-87
2023/01/10 13:12:44;;;;;;;;;;;;;;;6.66;69.99;98899.00;7378902;19;19962;-85
2023/01/10 13:15:20;;;;;;;;;;;;;;;6.71;68.97;98904.72;7378917;19;19933;-86
2023/01/10 13:17:47;;;;;;;;;;;;;;;6.72;69.04;98898.53;7381396;19;19929;-86
2023/01/10 13:20:20;;;;;;;;;;;;;;;6.69;68.81;98899.63;7380599;19;20266;-86